sensor_id;sensor_type;location;lat;lon;timestamp;P1;durP1;ratioP1;P2;durP2;ratioP2
11203;SDS011;5659;49.408;11.116;2023-12-04T00:00:43;42.17;;;25.83;;
11203;SDS011;5659;49.408;11.116;2023-12-04T00:03:09;42.23;;;24.77;;
11203;SDS011;5659;49.408;11.116;2023-12-04T00:05:35;44.13;;;25.87;;
11203;SDS011;5659;49.408;11.116;2023-12-04T00:08:01;42.77;;;24.90;;
11203;SDS011;5659;49.408;11.116;2023-12-04T00:10:27;43.87;;;24.83;;
11203;SDS011;5659;49.408;11.116;2023-12-04T00:12:53;39.93;;;25.00;;
11203;SDS011;5659;49.408;11.116;2023-12-04T00:15:19;39.07;;;24.33;;
11203;SDS011;5659;49.408;11.116;2023-12-04T00:17:46;42.53;;;25.20;;
11203;SDS011;5659;49.408;11.116;2023-12-04T00:20:12;46.63;;;25.97;;
11203;SDS011;5659;49.408;11.116;2023-12-04T00:22:38;43.73;;;26.57;;
11203;SDS011;5659;49.408;11.116;2023-12-04T00:25:05;45.23;;;26.37;;
11203;SDS011;5659;49.408;11.116;2023-12-04T00:27:32;42.30;;;25.70;;
11203;SDS011;5659;49.408;11.116;2023-12-04T00:29:58;43.40;;;26.20;;
11203;SDS011;5659;49.408;11.116;2023-12-04T00:32:24;42.63;;;26.73;;
11203;SDS011;5659;49.408;11.116;2023-12-04T00:34:50;43.37;;;26.63;;
11203;SDS011;5659;49.408;11.116;2023-12-04T00:37:16;48.50;;;28.37;;
11203;SDS011;5659;49.408;11.116;2023-12-04T00:39:42;44.57;;;26.63;;
11203;SDS011;5659;49.408;11.116;2023-12-04T00:42:08;46.47;;;25.87;;
11203;SDS011;5659;49.408;11.116;2023-12-04T00:44:34;47.30;;;27.60;;
11203;SDS011;5659;49.408;11.116;2023-12-04T00:47:00;47.57;;;27.93;;
11203;SDS011;5659;49.408;11.116;2023-12-04T00:49:26;45.43;;;26.53;;
11203;SDS011;5659;49.408;11.116;2023-12-04T00:51:52;47.70;;;26.20;;
11203;SDS011;5659;49.408;11.116;2023-12-04T00:54:18;40.07;;;25.77;;
11203;SDS011;5659;49.408;11.116;2023-12-04T00:56:44;46.63;;;27.27;;
11203;SDS011;5659;49.408;11.116;2023-12-04T00:59:10;49.13;;;28.57;;
11203;SDS011;5659;49.408;11.116;2023-12-04T01:01:36;48.63;;;27.97;;
11203;SDS011;5659;49.408;11.116;2023-12-04T01:04:02;50.33;;;28.70;;
11203;SDS011;5659;49.408;11.116;2023-12-04T01:06:28;54.37;;;29.43;;
11203;SDS011;5659;49.408;11.116;2023-12-04T01:08:54;51.87;;;30.27;;
11203;SDS011;5659;49.408;11.116;2023-12-04T01:11:20;55.33;;;31.70;;
11203;SDS011;5659;49.408;11.116;2023-12-04T01:13:47;55.27;;;30.40;;
11203;SDS011;5659;49.408;11.116;2023-12-04T01:16:13;53.83;;;31.87;;
11203;SDS011;5659;49.408;11.116;2023-12-04T01:18:39;56.17;;;31.40;;
11203;SDS011;5659;49.408;11.116;2023-12-04T01:21:06;54.80;;;32.13;;
11203;SDS011;5659;49.408;11.116;2023-12-04T01:23:32;55.17;;;31.83;;
11203;SDS011;5659;49.408;11.116;2023-12-04T01:25:58;54.47;;;30.70;;
11203;SDS011;5659;49.408;11.116;2023-12-04T01:28:24;59.27;;;32.37;;
11203;SDS011;5659;49.408;11.116;2023-12-04T01:30:50;57.47;;;31.43;;
11203;SDS011;5659;49.408;11.116;2023-12-04T01:33:16;61.57;;;33.17;;
11203;SDS011;5659;49.408;11.116;2023-12-04T01:35:42;61.23;;;32.87;;
11203;SDS011;5659;49.408;11.116;2023-12-04T01:38:08;63.47;;;34.27;;
11203;SDS011;5659;49.408;11.116;2023-12-04T01:40:34;57.40;;;32.97;;
11203;SDS011;5659;49.408;11.116;2023-12-04T01:43:00;61.63;;;34.63;;
11203;SDS011;5659;49.408;11.116;2023-12-04T01:45:26;62.87;;;33.47;;
11203;SDS011;5659;49.408;11.116;2023-12-04T01:47:52;57.83;;;32.63;;
11203;SDS011;5659;49.408;11.116;2023-12-04T01:50:18;64.87;;;36.13;;
11203;SDS011;5659;49.408;11.116;2023-12-04T01:52:44;61.40;;;34.20;;
11203;SDS011;5659;49.408;11.116;2023-12-04T01:55:10;59.40;;;32.67;;
11203;SDS011;5659;49.408;11.116;2023-12-04T01:57:36;61.97;;;33.77;;
11203;SDS011;5659;49.408;11.116;2023-12-04T02:00:02;61.30;;;34.33;;
11203;SDS011;5659;49.408;11.116;2023-12-04T02:02:29;64.10;;;35.07;;
11203;SDS011;5659;49.408;11.116;2023-12-04T02:04:55;60.93;;;32.37;;
11203;SDS011;5659;49.408;11.116;2023-12-04T02:07:23;61.70;;;33.67;;
11203;SDS011;5659;49.408;11.116;2023-12-04T02:09:49;58.40;;;33.17;;
11203;SDS011;5659;49.408;11.116;2023-12-04T02:12:15;60.07;;;34.87;;
11203;SDS011;5659;49.408;11.116;2023-12-04T02:14:41;60.17;;;34.23;;
11203;SDS011;5659;49.408;11.116;2023-12-04T02:17:08;58.30;;;33.43;;
11203;SDS011;5659;49.408;11.116;2023-12-04T02:19:34;62.87;;;33.63;;
11203;SDS011;5659;49.408;11.116;2023-12-04T02:22:00;66.33;;;34.37;;
11203;SDS011;5659;49.408;11.116;2023-12-04T02:24:26;57.20;;;33.83;;
11203;SDS011;5659;49.408;11.116;2023-12-04T02:26:55;59.73;;;33.73;;
11203;SDS011;5659;49.408;11.116;2023-12-04T02:29:29;62.87;;;34.50;;
11203;SDS011;5659;49.408;11.116;2023-12-04T02:31:56;59.53;;;34.73;;
11203;SDS011;5659;49.408;11.116;2023-12-04T02:34:22;59.27;;;34.73;;
11203;SDS011;5659;49.408;11.116;2023-12-04T02:36:49;56.53;;;32.90;;
11203;SDS011;5659;49.408;11.116;2023-12-04T02:39:16;60.07;;;32.40;;
11203;SDS011;5659;49.408;11.116;2023-12-04T02:41:42;57.90;;;32.27;;
11203;SDS011;5659;49.408;11.116;2023-12-04T02:44:08;54.43;;;32.60;;
11203;SDS011;5659;49.408;11.116;2023-12-04T02:46:34;62.57;;;34.23;;
11203;SDS011;5659;49.408;11.116;2023-12-04T02:49:00;55.73;;;32.77;;
11203;SDS011;5659;49.408;11.116;2023-12-04T02:51:26;54.53;;;31.43;;
11203;SDS011;5659;49.408;11.116;2023-12-04T02:53:52;55.83;;;32.87;;
11203;SDS011;5659;49.408;11.116;2023-12-04T02:56:18;53.00;;;31.37;;
11203;SDS011;5659;49.408;11.116;2023-12-04T02:58:44;54.27;;;31.80;;
11203;SDS011;5659;49.408;11.116;2023-12-04T03:01:10;58.40;;;31.83;;
11203;SDS011;5659;49.408;11.116;2023-12-04T03:03:36;58.90;;;32.33;;
11203;SDS011;5659;49.408;11.116;2023-12-04T03:06:02;59.63;;;32.83;;
11203;SDS011;5659;49.408;11.116;2023-12-04T03:08:27;57.53;;;32.13;;
11203;SDS011;5659;49.408;11.116;2023-12-04T03:10:53;54.20;;;31.73;;
11203;SDS011;5659;49.408;11.116;2023-12-04T03:13:19;51.83;;;31.07;;
11203;SDS011;5659;49.408;11.116;2023-12-04T03:15:45;51.77;;;31.07;;
11203;SDS011;5659;49.408;11.116;2023-12-04T03:18:11;51.10;;;30.03;;
11203;SDS011;5659;49.408;11.116;2023-12-04T03:20:37;54.13;;;30.90;;
11203;SDS011;5659;49.408;11.116;2023-12-04T03:23:03;50.67;;;30.03;;
11203;SDS011;5659;49.408;11.116;2023-12-04T03:25:29;52.80;;;31.03;;
11203;SDS011;5659;49.408;11.116;2023-12-04T03:27:55;54.97;;;30.90;;
11203;SDS011;5659;49.408;11.116;2023-12-04T03:30:21;51.13;;;29.77;;
11203;SDS011;5659;49.408;11.116;2023-12-04T03:32:47;52.60;;;31.17;;
11203;SDS011;5659;49.408;11.116;2023-12-04T03:35:13;52.53;;;28.93;;
11203;SDS011;5659;49.408;11.116;2023-12-04T03:37:39;56.80;;;31.17;;
11203;SDS011;5659;49.408;11.116;2023-12-04T03:40:05;54.97;;;30.40;;
11203;SDS011;5659;49.408;11.116;2023-12-04T03:42:31;51.93;;;30.20;;
11203;SDS011;5659;49.408;11.116;2023-12-04T03:44:57;51.37;;;29.63;;
11203;SDS011;5659;49.408;11.116;2023-12-04T03:47:23;49.57;;;29.93;;
11203;SDS011;5659;49.408;11.116;2023-12-04T03:49:50;52.00;;;30.23;;
11203;SDS011;5659;49.408;11.116;2023-12-04T03:52:16;52.77;;;28.80;;
11203;SDS011;5659;49.408;11.116;2023-12-04T03:54:42;57.53;;;31.53;;
11203;SDS011;5659;49.408;11.116;2023-12-04T03:57:08;51.23;;;30.17;;
11203;SDS011;5659;49.408;11.116;2023-12-04T03:59:34;49.27;;;28.10;;
11203;SDS011;5659;49.408;11.116;2023-12-04T04:02:00;51.47;;;29.80;;
11203;SDS011;5659;49.408;11.116;2023-12-04T04:04:25;48.50;;;28.07;;
11203;SDS011;5659;49.408;11.116;2023-12-04T04:06:51;49.77;;;27.93;;
11203;SDS011;5659;49.408;11.116;2023-12-04T04:09:17;51.70;;;28.93;;
11203;SDS011;5659;49.408;11.116;2023-12-04T04:11:45;51.13;;;29.10;;
11203;SDS011;5659;49.408;11.116;2023-12-04T04:14:11;47.87;;;27.97;;
11203;SDS011;5659;49.408;11.116;2023-12-04T04:16:37;51.00;;;28.93;;
11203;SDS011;5659;49.408;11.116;2023-12-04T04:19:03;47.53;;;29.07;;
11203;SDS011;5659;49.408;11.116;2023-12-04T04:21:28;53.67;;;29.07;;
11203;SDS011;5659;49.408;11.116;2023-12-04T04:23:54;50.17;;;29.10;;
11203;SDS011;5659;49.408;11.116;2023-12-04T04:26:21;50.20;;;28.97;;
11203;SDS011;5659;49.408;11.116;2023-12-04T04:28:46;54.43;;;30.07;;
11203;SDS011;5659;49.408;11.116;2023-12-04T04:31:12;52.67;;;29.83;;
11203;SDS011;5659;49.408;11.116;2023-12-04T04:33:38;52.30;;;29.00;;
11203;SDS011;5659;49.408;11.116;2023-12-04T04:36:04;51.90;;;27.77;;
11203;SDS011;5659;49.408;11.116;2023-12-04T04:38:30;48.93;;;28.73;;
11203;SDS011;5659;49.408;11.116;2023-12-04T04:40:56;61.53;;;28.87;;
11203;SDS011;5659;49.408;11.116;2023-12-04T04:43:22;58.00;;;28.43;;
11203;SDS011;5659;49.408;11.116;2023-12-04T04:45:48;48.77;;;27.70;;
11203;SDS011;5659;49.408;11.116;2023-12-04T04:48:14;49.90;;;27.80;;
11203;SDS011;5659;49.408;11.116;2023-12-04T04:50:40;52.23;;;29.07;;
11203;SDS011;5659;49.408;11.116;2023-12-04T04:53:06;53.50;;;28.90;;
11203;SDS011;5659;49.408;11.116;2023-12-04T04:55:32;53.03;;;29.10;;
11203;SDS011;5659;49.408;11.116;2023-12-04T04:57:58;52.97;;;27.50;;
11203;SDS011;5659;49.408;11.116;2023-12-04T05:00:24;50.63;;;29.00;;
11203;SDS011;5659;49.408;11.116;2023-12-04T05:02:50;56.40;;;29.27;;
11203;SDS011;5659;49.408;11.116;2023-12-04T05:05:16;59.27;;;30.00;;
11203;SDS011;5659;49.408;11.116;2023-12-04T05:07:42;50.80;;;29.37;;
11203;SDS011;5659;49.408;11.116;2023-12-04T05:10:08;49.23;;;29.00;;
11203;SDS011;5659;49.408;11.116;2023-12-04T05:12:34;56.43;;;31.17;;
11203;SDS011;5659;49.408;11.116;2023-12-04T05:15:00;55.33;;;30.53;;
11203;SDS011;5659;49.408;11.116;2023-12-04T05:17:26;52.27;;;29.63;;
11203;SDS011;5659;49.408;11.116;2023-12-04T05:19:52;50.27;;;28.87;;
11203;SDS011;5659;49.408;11.116;2023-12-04T05:22:18;53.00;;;30.23;;
11203;SDS011;5659;49.408;11.116;2023-12-04T05:24:44;50.27;;;28.80;;
11203;SDS011;5659;49.408;11.116;2023-12-04T05:27:10;49.17;;;27.30;;
11203;SDS011;5659;49.408;11.116;2023-12-04T05:29:36;48.10;;;28.33;;
11203;SDS011;5659;49.408;11.116;2023-12-04T05:32:02;49.67;;;29.10;;
11203;SDS011;5659;49.408;11.116;2023-12-04T05:34:28;49.60;;;28.70;;
11203;SDS011;5659;49.408;11.116;2023-12-04T05:36:54;50.37;;;28.87;;
11203;SDS011;5659;49.408;11.116;2023-12-04T05:39:20;48.17;;;27.97;;
11203;SDS011;5659;49.408;11.116;2023-12-04T05:41:46;48.07;;;28.60;;
11203;SDS011;5659;49.408;11.116;2023-12-04T05:44:12;51.00;;;28.50;;
11203;SDS011;5659;49.408;11.116;2023-12-04T05:46:39;48.73;;;28.57;;
11203;SDS011;5659;49.408;11.116;2023-12-04T05:49:05;46.33;;;28.17;;
11203;SDS011;5659;49.408;11.116;2023-12-04T05:51:30;52.03;;;29.53;;
11203;SDS011;5659;49.408;11.116;2023-12-04T05:53:56;48.23;;;27.93;;
11203;SDS011;5659;49.408;11.116;2023-12-04T05:56:22;50.70;;;28.77;;
11203;SDS011;5659;49.408;11.116;2023-12-04T05:58:48;49.83;;;29.27;;
11203;SDS011;5659;49.408;11.116;2023-12-04T06:01:14;48.53;;;28.77;;
11203;SDS011;5659;49.408;11.116;2023-12-04T06:03:40;49.53;;;28.67;;
11203;SDS011;5659;49.408;11.116;2023-12-04T06:06:06;48.63;;;29.40;;
11203;SDS011;5659;49.408;11.116;2023-12-04T06:08:33;51.37;;;30.20;;
11203;SDS011;5659;49.408;11.116;2023-12-04T06:10:59;46.53;;;27.73;;
11203;SDS011;5659;49.408;11.116;2023-12-04T06:13:24;52.10;;;28.17;;
11203;SDS011;5659;49.408;11.116;2023-12-04T06:15:50;48.57;;;27.93;;
11203;SDS011;5659;49.408;11.116;2023-12-04T06:18:17;46.90;;;28.43;;
11203;SDS011;5659;49.408;11.116;2023-12-04T06:20:43;48.07;;;28.00;;
11203;SDS011;5659;49.408;11.116;2023-12-04T06:23:09;47.30;;;28.13;;
11203;SDS011;5659;49.408;11.116;2023-12-04T06:25:35;46.90;;;27.67;;
11203;SDS011;5659;49.408;11.116;2023-12-04T06:28:01;48.23;;;28.33;;
11203;SDS011;5659;49.408;11.116;2023-12-04T06:30:27;44.97;;;26.53;;
11203;SDS011;5659;49.408;11.116;2023-12-04T06:32:53;45.60;;;26.90;;
11203;SDS011;5659;49.408;11.116;2023-12-04T06:35:19;46.07;;;27.23;;
11203;SDS011;5659;49.408;11.116;2023-12-04T06:37:45;43.30;;;26.53;;
11203;SDS011;5659;49.408;11.116;2023-12-04T06:40:13;39.50;;;25.53;;
11203;SDS011;5659;49.408;11.116;2023-12-04T06:42:39;44.63;;;26.73;;
11203;SDS011;5659;49.408;11.116;2023-12-04T06:45:05;42.47;;;25.13;;
11203;SDS011;5659;49.408;11.116;2023-12-04T06:47:32;42.20;;;25.27;;
11203;SDS011;5659;49.408;11.116;2023-12-04T06:49:59;42.60;;;25.50;;
11203;SDS011;5659;49.408;11.116;2023-12-04T06:52:25;43.07;;;24.67;;
11203;SDS011;5659;49.408;11.116;2023-12-04T06:54:51;43.00;;;25.23;;
11203;SDS011;5659;49.408;11.116;2023-12-04T06:57:17;37.40;;;22.80;;
11203;SDS011;5659;49.408;11.116;2023-12-04T06:59:43;37.97;;;23.00;;
11203;SDS011;5659;49.408;11.116;2023-12-04T07:02:09;38.13;;;23.03;;
11203;SDS011;5659;49.408;11.116;2023-12-04T07:04:35;33.17;;;20.60;;
11203;SDS011;5659;49.408;11.116;2023-12-04T07:07:02;35.93;;;21.03;;
11203;SDS011;5659;49.408;11.116;2023-12-04T07:09:33;31.13;;;19.80;;
11203;SDS011;5659;49.408;11.116;2023-12-04T07:11:59;29.83;;;19.80;;
11203;SDS011;5659;49.408;11.116;2023-12-04T07:14:26;30.07;;;19.73;;
11203;SDS011;5659;49.408;11.116;2023-12-04T07:16:51;29.63;;;19.20;;
11203;SDS011;5659;49.408;11.116;2023-12-04T07:19:17;29.73;;;18.70;;
11203;SDS011;5659;49.408;11.116;2023-12-04T07:21:43;27.83;;;18.13;;
11203;SDS011;5659;49.408;11.116;2023-12-04T07:24:09;27.07;;;17.50;;
11203;SDS011;5659;49.408;11.116;2023-12-04T07:26:35;27.33;;;17.13;;
11203;SDS011;5659;49.408;11.116;2023-12-04T07:29:02;27.17;;;17.83;;
11203;SDS011;5659;49.408;11.116;2023-12-04T07:31:28;27.93;;;18.10;;
11203;SDS011;5659;49.408;11.116;2023-12-04T07:33:54;26.50;;;16.83;;
11203;SDS011;5659;49.408;11.116;2023-12-04T07:36:20;26.97;;;16.60;;
11203;SDS011;5659;49.408;11.116;2023-12-04T07:38:46;24.97;;;16.37;;
11203;SDS011;5659;49.408;11.116;2023-12-04T07:41:12;24.83;;;15.63;;
11203;SDS011;5659;49.408;11.116;2023-12-04T07:43:39;22.00;;;15.13;;
11203;SDS011;5659;49.408;11.116;2023-12-04T07:46:05;22.30;;;14.83;;
11203;SDS011;5659;49.408;11.116;2023-12-04T07:48:31;24.90;;;16.40;;
11203;SDS011;5659;49.408;11.116;2023-12-04T07:50:57;24.00;;;15.37;;
11203;SDS011;5659;49.408;11.116;2023-12-04T07:53:23;22.23;;;15.27;;
11203;SDS011;5659;49.408;11.116;2023-12-04T07:55:49;20.70;;;14.33;;
11203;SDS011;5659;49.408;11.116;2023-12-04T07:58:18;21.03;;;14.30;;
11203;SDS011;5659;49.408;11.116;2023-12-04T08:00:44;20.03;;;12.93;;
11203;SDS011;5659;49.408;11.116;2023-12-04T08:03:10;21.27;;;14.50;;
11203;SDS011;5659;49.408;11.116;2023-12-04T08:05:36;19.23;;;13.43;;
11203;SDS011;5659;49.408;11.116;2023-12-04T08:08:02;19.57;;;13.37;;
11203;SDS011;5659;49.408;11.116;2023-12-04T08:10:28;20.20;;;13.33;;
11203;SDS011;5659;49.408;11.116;2023-12-04T08:12:54;19.03;;;13.23;;
11203;SDS011;5659;49.408;11.116;2023-12-04T08:15:20;20.03;;;13.00;;
11203;SDS011;5659;49.408;11.116;2023-12-04T08:17:46;18.93;;;13.27;;
11203;SDS011;5659;49.408;11.116;2023-12-04T08:20:12;18.13;;;12.60;;
11203;SDS011;5659;49.408;11.116;2023-12-04T08:22:41;19.80;;;12.47;;
11203;SDS011;5659;49.408;11.116;2023-12-04T08:25:10;19.60;;;13.00;;
11203;SDS011;5659;49.408;11.116;2023-12-04T08:27:37;17.67;;;11.53;;
11203;SDS011;5659;49.408;11.116;2023-12-04T08:30:06;16.43;;;11.47;;
11203;SDS011;5659;49.408;11.116;2023-12-04T08:32:32;17.70;;;11.90;;
11203;SDS011;5659;49.408;11.116;2023-12-04T08:34:58;18.37;;;11.93;;
11203;SDS011;5659;49.408;11.116;2023-12-04T08:37:25;18.10;;;12.10;;
11203;SDS011;5659;49.408;11.116;2023-12-04T08:39:51;17.00;;;11.00;;
11203;SDS011;5659;49.408;11.116;2023-12-04T08:42:18;15.10;;;10.90;;
11203;SDS011;5659;49.408;11.116;2023-12-04T08:44:44;16.87;;;11.10;;
11203;SDS011;5659;49.408;11.116;2023-12-04T08:47:12;12.93;;;10.37;;
11203;SDS011;5659;49.408;11.116;2023-12-04T08:49:39;16.87;;;10.77;;
11203;SDS011;5659;49.408;11.116;2023-12-04T08:52:06;15.33;;;10.23;;
11203;SDS011;5659;49.408;11.116;2023-12-04T08:54:32;14.20;;;9.80;;
11203;SDS011;5659;49.408;11.116;2023-12-04T08:56:58;14.93;;;9.60;;
11203;SDS011;5659;49.408;11.116;2023-12-04T08:59:24;13.40;;;9.37;;
11203;SDS011;5659;49.408;11.116;2023-12-04T09:01:50;13.90;;;9.77;;
11203;SDS011;5659;49.408;11.116;2023-12-04T09:04:16;12.73;;;8.93;;
11203;SDS011;5659;49.408;11.116;2023-12-04T09:06:42;13.77;;;8.83;;
11203;SDS011;5659;49.408;11.116;2023-12-04T09:09:08;13.27;;;9.07;;
11203;SDS011;5659;49.408;11.116;2023-12-04T09:11:34;13.47;;;8.83;;
11203;SDS011;5659;49.408;11.116;2023-12-04T09:14:00;12.00;;;8.57;;
11203;SDS011;5659;49.408;11.116;2023-12-04T09:16:26;11.33;;;8.60;;
11203;SDS011;5659;49.408;11.116;2023-12-04T09:18:52;12.23;;;8.10;;
11203;SDS011;5659;49.408;11.116;2023-12-04T09:21:18;12.53;;;8.30;;
11203;SDS011;5659;49.408;11.116;2023-12-04T09:23:44;12.30;;;7.83;;
11203;SDS011;5659;49.408;11.116;2023-12-04T09:26:14;11.77;;;7.70;;
11203;SDS011;5659;49.408;11.116;2023-12-04T09:28:41;10.40;;;7.57;;
11203;SDS011;5659;49.408;11.116;2023-12-04T09:31:08;12.07;;;8.07;;
11203;SDS011;5659;49.408;11.116;2023-12-04T09:33:34;11.20;;;7.60;;
11203;SDS011;5659;49.408;11.116;2023-12-04T09:36:01;12.37;;;7.97;;
11203;SDS011;5659;49.408;11.116;2023-12-04T09:38:27;15.00;;;7.53;;
11203;SDS011;5659;49.408;11.116;2023-12-04T09:40:53;11.53;;;7.73;;
11203;SDS011;5659;49.408;11.116;2023-12-04T09:43:19;10.10;;;6.77;;
11203;SDS011;5659;49.408;11.116;2023-12-04T09:45:45;10.90;;;7.73;;
11203;SDS011;5659;49.408;11.116;2023-12-04T09:48:11;11.03;;;7.53;;
11203;SDS011;5659;49.408;11.116;2023-12-04T09:50:37;10.27;;;7.30;;
11203;SDS011;5659;49.408;11.116;2023-12-04T09:53:04;11.83;;;7.60;;
11203;SDS011;5659;49.408;11.116;2023-12-04T09:55:31;9.57;;;6.77;;
11203;SDS011;5659;49.408;11.116;2023-12-04T09:57:57;12.30;;;7.33;;
11203;SDS011;5659;49.408;11.116;2023-12-04T10:00:23;10.17;;;7.03;;
11203;SDS011;5659;49.408;11.116;2023-12-04T10:02:49;11.97;;;7.77;;
11203;SDS011;5659;49.408;11.116;2023-12-04T10:05:15;10.97;;;7.07;;
11203;SDS011;5659;49.408;11.116;2023-12-04T10:07:41;10.87;;;7.60;;
11203;SDS011;5659;49.408;11.116;2023-12-04T10:10:07;10.50;;;7.60;;
11203;SDS011;5659;49.408;11.116;2023-12-04T10:12:35;10.70;;;7.37;;
11203;SDS011;5659;49.408;11.116;2023-12-04T10:17:34;11.90;;;7.80;;
11203;SDS011;5659;49.408;11.116;2023-12-04T10:22:35;10.90;;;7.30;;
11203;SDS011;5659;49.408;11.116;2023-12-04T10:25:24;11.00;;;7.40;;
11203;SDS011;5659;49.408;11.116;2023-12-04T10:27:50;11.13;;;7.43;;
11203;SDS011;5659;49.408;11.116;2023-12-04T10:30:35;10.03;;;7.07;;
11203;SDS011;5659;49.408;11.116;2023-12-04T10:33:02;10.80;;;7.10;;
11203;SDS011;5659;49.408;11.116;2023-12-04T10:35:29;10.73;;;6.93;;
11203;SDS011;5659;49.408;11.116;2023-12-04T10:37:56;14.57;;;7.40;;
11203;SDS011;5659;49.408;11.116;2023-12-04T10:40:23;9.50;;;6.20;;
11203;SDS011;5659;49.408;11.116;2023-12-04T10:42:49;9.43;;;6.80;;
11203;SDS011;5659;49.408;11.116;2023-12-04T10:45:15;10.70;;;6.67;;
11203;SDS011;5659;49.408;11.116;2023-12-04T10:47:41;10.37;;;7.23;;
11203;SDS011;5659;49.408;11.116;2023-12-04T10:50:09;9.60;;;6.53;;
11203;SDS011;5659;49.408;11.116;2023-12-04T10:52:35;9.83;;;7.10;;
11203;SDS011;5659;49.408;11.116;2023-12-04T10:55:01;8.43;;;6.60;;
11203;SDS011;5659;49.408;11.116;2023-12-04T10:57:31;11.07;;;6.40;;
11203;SDS011;5659;49.408;11.116;2023-12-04T11:00:02;8.93;;;6.60;;
11203;SDS011;5659;49.408;11.116;2023-12-04T11:02:28;8.93;;;6.13;;
11203;SDS011;5659;49.408;11.116;2023-12-04T11:04:55;8.73;;;6.13;;
11203;SDS011;5659;49.408;11.116;2023-12-04T11:07:24;10.77;;;6.17;;
11203;SDS011;5659;49.408;11.116;2023-12-04T11:09:50;7.07;;;5.37;;
11203;SDS011;5659;49.408;11.116;2023-12-04T11:12:18;9.07;;;5.93;;
11203;SDS011;5659;49.408;11.116;2023-12-04T11:14:46;8.87;;;6.20;;
11203;SDS011;5659;49.408;11.116;2023-12-04T11:17:13;7.57;;;5.67;;
11203;SDS011;5659;49.408;11.116;2023-12-04T11:19:55;9.43;;;6.37;;
11203;SDS011;5659;49.408;11.116;2023-12-04T11:22:26;8.07;;;5.57;;
11203;SDS011;5659;49.408;11.116;2023-12-04T11:24:52;8.27;;;5.53;;
11203;SDS011;5659;49.408;11.116;2023-12-04T11:27:18;8.27;;;5.67;;
11203;SDS011;5659;49.408;11.116;2023-12-04T11:29:45;7.53;;;5.60;;
11203;SDS011;5659;49.408;11.116;2023-12-04T11:32:13;7.57;;;5.70;;
11203;SDS011;5659;49.408;11.116;2023-12-04T11:34:47;10.03;;;5.90;;
11203;SDS011;5659;49.408;11.116;2023-12-04T11:37:13;7.87;;;5.80;;
11203;SDS011;5659;49.408;11.116;2023-12-04T11:39:39;9.17;;;6.50;;
11203;SDS011;5659;49.408;11.116;2023-12-04T11:42:06;8.97;;;5.73;;
11203;SDS011;5659;49.408;11.116;2023-12-04T11:44:32;8.50;;;6.10;;
11203;SDS011;5659;49.408;11.116;2023-12-04T11:47:05;7.70;;;5.53;;
11203;SDS011;5659;49.408;11.116;2023-12-04T11:49:32;8.63;;;5.73;;
11203;SDS011;5659;49.408;11.116;2023-12-04T11:51:58;8.67;;;5.97;;
11203;SDS011;5659;49.408;11.116;2023-12-04T11:54:25;8.93;;;5.57;;
11203;SDS011;5659;49.408;11.116;2023-12-04T11:57:26;8.50;;;6.03;;
11203;SDS011;5659;49.408;11.116;2023-12-04T11:59:49;8.90;;;6.53;;
11203;SDS011;5659;49.408;11.116;2023-12-04T12:02:15;8.67;;;6.27;;
11203;SDS011;5659;49.408;11.116;2023-12-04T12:04:42;10.47;;;6.40;;
11203;SDS011;5659;49.408;11.116;2023-12-04T12:07:08;7.70;;;5.83;;
11203;SDS011;5659;49.408;11.116;2023-12-04T12:09:34;11.37;;;6.40;;
11203;SDS011;5659;49.408;11.116;2023-12-04T12:12:03;9.87;;;6.30;;
11203;SDS011;5659;49.408;11.116;2023-12-04T12:14:29;10.73;;;7.00;;
11203;SDS011;5659;49.408;11.116;2023-12-04T12:16:57;9.57;;;6.37;;
11203;SDS011;5659;49.408;11.116;2023-12-04T12:19:24;10.30;;;6.00;;
11203;SDS011;5659;49.408;11.116;2023-12-04T12:21:50;12.23;;;6.40;;
11203;SDS011;5659;49.408;11.116;2023-12-04T12:24:17;10.70;;;6.27;;
11203;SDS011;5659;49.408;11.116;2023-12-04T12:26:43;9.33;;;6.73;;
11203;SDS011;5659;49.408;11.116;2023-12-04T12:29:10;11.50;;;7.33;;
11203;SDS011;5659;49.408;11.116;2023-12-04T12:31:36;9.77;;;6.80;;
11203;SDS011;5659;49.408;11.116;2023-12-04T12:34:02;10.47;;;6.73;;
11203;SDS011;5659;49.408;11.116;2023-12-04T12:36:28;9.63;;;6.47;;
11203;SDS011;5659;49.408;11.116;2023-12-04T12:38:54;8.77;;;5.83;;
11203;SDS011;5659;49.408;11.116;2023-12-04T12:41:21;15.63;;;6.90;;
11203;SDS011;5659;49.408;11.116;2023-12-04T12:43:47;13.03;;;6.83;;
11203;SDS011;5659;49.408;11.116;2023-12-04T12:46:17;10.17;;;6.73;;
11203;SDS011;5659;49.408;11.116;2023-12-04T12:48:43;14.03;;;7.17;;
11203;SDS011;5659;49.408;11.116;2023-12-04T12:51:09;18.43;;;7.60;;
11203;SDS011;5659;49.408;11.116;2023-12-04T12:53:36;10.53;;;7.90;;
11203;SDS011;5659;49.408;11.116;2023-12-04T12:56:02;11.70;;;7.87;;
11203;SDS011;5659;49.408;11.116;2023-12-04T12:58:29;11.70;;;7.80;;
11203;SDS011;5659;49.408;11.116;2023-12-04T13:00:55;10.60;;;7.63;;
11203;SDS011;5659;49.408;11.116;2023-12-04T13:03:21;11.13;;;7.17;;
11203;SDS011;5659;49.408;11.116;2023-12-04T13:05:47;12.80;;;7.70;;
11203;SDS011;5659;49.408;11.116;2023-12-04T13:08:13;11.03;;;7.63;;
11203;SDS011;5659;49.408;11.116;2023-12-04T13:10:40;10.70;;;7.97;;
11203;SDS011;5659;49.408;11.116;2023-12-04T13:13:13;10.47;;;7.33;;
11203;SDS011;5659;49.408;11.116;2023-12-04T13:15:39;13.27;;;8.13;;
11203;SDS011;5659;49.408;11.116;2023-12-04T13:18:06;12.13;;;7.07;;
11203;SDS011;5659;49.408;11.116;2023-12-04T13:20:32;9.93;;;7.33;;
11203;SDS011;5659;49.408;11.116;2023-12-04T13:22:59;13.87;;;8.13;;
11203;SDS011;5659;49.408;11.116;2023-12-04T13:25:25;11.87;;;8.13;;
11203;SDS011;5659;49.408;11.116;2023-12-04T13:27:51;9.80;;;7.73;;
11203;SDS011;5659;49.408;11.116;2023-12-04T13:30:17;13.67;;;7.93;;
11203;SDS011;5659;49.408;11.116;2023-12-04T13:32:43;11.30;;;7.47;;
11203;SDS011;5659;49.408;11.116;2023-12-04T13:35:09;11.27;;;7.70;;
11203;SDS011;5659;49.408;11.116;2023-12-04T13:37:36;15.77;;;8.60;;
11203;SDS011;5659;49.408;11.116;2023-12-04T13:40:04;10.97;;;7.33;;
11203;SDS011;5659;49.408;11.116;2023-12-04T13:42:31;11.60;;;7.57;;
11203;SDS011;5659;49.408;11.116;2023-12-04T13:45:16;11.17;;;7.17;;
11203;SDS011;5659;49.408;11.116;2023-12-04T13:47:44;14.30;;;8.13;;
11203;SDS011;5659;49.408;11.116;2023-12-04T13:50:10;12.00;;;7.27;;
11203;SDS011;5659;49.408;11.116;2023-12-04T13:52:36;10.40;;;7.50;;
11203;SDS011;5659;49.408;11.116;2023-12-04T13:55:04;12.97;;;7.73;;
11203;SDS011;5659;49.408;11.116;2023-12-04T13:57:39;11.03;;;7.77;;
11203;SDS011;5659;49.408;11.116;2023-12-04T14:00:23;11.63;;;7.97;;
11203;SDS011;5659;49.408;11.116;2023-12-04T14:02:50;11.83;;;8.20;;
11203;SDS011;5659;49.408;11.116;2023-12-04T14:05:25;12.27;;;7.70;;
11203;SDS011;5659;49.408;11.116;2023-12-04T14:07:51;11.27;;;7.30;;
11203;SDS011;5659;49.408;11.116;2023-12-04T14:10:17;10.67;;;8.03;;
11203;SDS011;5659;49.408;11.116;2023-12-04T14:12:43;11.57;;;7.77;;
11203;SDS011;5659;49.408;11.116;2023-12-04T14:15:09;11.87;;;7.63;;
11203;SDS011;5659;49.408;11.116;2023-12-04T14:17:35;11.77;;;7.13;;
11203;SDS011;5659;49.408;11.116;2023-12-04T14:20:04;12.03;;;7.70;;
11203;SDS011;5659;49.408;11.116;2023-12-04T14:22:36;15.30;;;7.67;;
11203;SDS011;5659;49.408;11.116;2023-12-04T14:25:02;11.13;;;7.73;;
11203;SDS011;5659;49.408;11.116;2023-12-04T14:27:28;11.87;;;8.03;;
11203;SDS011;5659;49.408;11.116;2023-12-04T14:29:54;11.73;;;8.00;;